• Join FlightAware (Why Join?)
  • Login
  • US Flag 
07:57PM EDT


 

Airport Tracker/Info


-or-


 

Live Flight TrackerFlight Track Log ✈ EJA312 ✈ 14-Oct-2013 ✈ KDAL - KHOU

Flight Track Log - Related Links

Times and Time Zones

All times are in EDT time to prevent confusion due to time zone crossing. See the EJA312 flight status page for this flight to view local times or setup timezone preferences in your user account.

Time Position Orientation Groundspeed Altitude Reporting Facility
EDT Latitude Longitude Course Direction KTS MPH feet Rate Location/Type
05:51PM 32.8500 -96.8333 140° Southeast 159 183 1,500  Level Dallas / Fort Worth TRACON
05:52PM 32.8167 -96.8000 140° Southeast 193 222 4,300 3,060 Climbing Dallas / Fort Worth TRACON
05:53PM 32.7833 -96.7333 121° Southeast 256 295 6,800 1,440 Climbing Dallas / Fort Worth TRACON
05:54PM 32.7167 -96.7333 180° South 246 283 7,200 960 Climbing Dallas / Fort Worth TRACON
05:56PM 32.5625 -96.7972 199° South 294 338 10,000 1,320 Climbing Fort Worth Center
05:57PM 32.4667 -96.8469 204° Southwest 339 390 11,600 1,320 Climbing Fort Worth Center
05:58PM 32.3750 -96.8919 203° Southwest 354 407 12,700 1,860 Climbing Fort Worth Center
05:59PM 32.2875 -96.9317 201° Southwest 354 407 15,300 2,100 Climbing Fort Worth Center
06:00PM 32.1958 -96.9272 178° South 334 384 17,000 1,500 Climbing Fort Worth Center
06:01PM 32.0911 -96.9083 171° South 349 402 18,300 1,980 Climbing Fort Worth Center
06:02PM 31.9908 -96.8917 172° South 367 422 21,000 1,320 Climbing Fort Worth Center
06:03PM 31.8886 -96.8653 168° South 367 422 21,000  Level Fort Worth Center
06:04PM 31.8022 -96.8531 173° South 391 450 21,000  Level Houston Center
06:05PM 31.6919 -96.8333 171° South 395 455 21,000  Level Houston Center
06:06PM 31.5883 -96.8169 172° South 377 434 21,000  Level Houston Center
06:07PM 31.4858 -96.8006 172° South 369 425 21,000  Level Houston Center
06:08PM 31.3681 -96.7825 173° South 362 417 21,000  Level Houston Center
06:09PM 31.2683 -96.7492 164° South 377 434 21,000  Level Houston Center
06:10PM 31.1719 -96.6994 156° South 374 430 21,000  Level Houston Center
06:11PM 31.0767 -96.6506 156° South 369 425 21,000  Level Houston Center
06:12PM 30.9822 -96.6008 156° South 369 425 21,000  Level Houston Center
06:13PM 30.8853 -96.5517 156° South 371 427 21,000  Level Houston Center
06:14PM 30.7897 -96.5031 156° South 371 427 21,000  Level Houston Center
06:15PM 30.6933 -96.4533 156° South 372 428 21,000 -1,140 Level Houston Center
06:16PM 30.5767 -96.3922 156° South 389 448 18,700 -2,220 Descending Houston Center
06:17PM 30.4719 -96.3408 157° South 403 464 16,500 -2,100 Descending Houston Center
06:18PM 30.3700 -96.2894 156° South 396 456 14,400 -2,040 Descending Houston Center
06:19PM 30.2728 -96.2406 157° South 381 438 12,400 -2,100 Descending Houston Center
06:19PM 30.2431 -96.2258 157° South 374 430 11,700 -1,380 Descending Houston Center
06:20PM 30.1772 -96.1917 156° South 374 430 11,000 -720 Descending Houston Center
06:20PM 30.1486 -96.1758 154° Southeast 367 422 11,000 -120 Level Houston Center
06:21PM 30.0872 -96.1428 155° Southeast 369 425 10,900  Descending Houston Center
06:21PM 30.0497 -96.1244 157° South 367 422 11,000  Climbing Houston Center
06:22PM 29.9950 -96.0936 154° Southeast 366 421 10,900 -720 Descending Houston Center
06:22PM 29.9597 -96.0767 157° South 355 409 10,300 -1,800 Descending Houston Center
06:23PM 29.9017 -96.0450 155° Southeast 295 339 9,100 -1,500 Descending Houston Center
06:24PM 29.8869 -96.0367 154° Southeast 278 320 8,800 -1,500 Descending Houston Center
06:24PM 29.8294 -96.0061 155° Southeast 284 327 7,600 -1,500 Descending Houston Center
06:25PM 29.8144 -95.9992 158° South 287 330 7,300 -600 Descending Houston Center
06:25PM 29.7564 -95.9642 152° Southeast 282 325 7,000 -300 Descending Houston Center
06:26PM 29.7431 -95.9497 137° Southeast 294 338 7,000 -120 Level Houston Center
06:26PM 29.7000 -95.9014 136° Southeast 285 328 6,900 -300 Descending Houston Center
06:27PM 29.6889 -95.8839 126° Southeast 277 319 6,700 -900 Descending Houston Center
06:27PM 29.6508 -95.8339 131° Southeast 275 316 6,000 -720 Descending Houston Center
06:28PM 29.6392 -95.8197 133° Southeast 273 314 6,000  Level Houston Center
06:29PM 29.6189 -95.7333 105° East 293 337 6,000  Level Houston Center
06:29PM 29.6417 -95.6714 67° East 287 330 6,000  Level Houston Center
06:30PM 29.6467 -95.6436 78° East 285 328 6,000 -600 Level Houston Center
06:31PM 29.6628 -95.5839 73° East 285 328 5,400 -1,140 Descending Houston Center
06:31PM 29.6703 -95.5567 72° East 276 318 4,900 -1,920 Descending Houston Center
06:32PM 29.6900 -95.4725 75° East 275 316 3,200 -1,500 Descending Houston Center
06:33PM 29.7061 -95.4033 75° East 266 306 2,000 -1,320 Descending Houston Center
06:33PM 29.7067 -95.4031 23° Northeast 213 245 2,000 -300 Level Houston Center
06:34PM 29.7039 -95.3481 93° East 142 163 1,700 -600 Descending Houston Center
06:35PM 29.6781 -95.3175 134° Southeast 128 147 800 -780 Descending Houston Center
06:36PM 29.6569 -95.2936 135° Southeast 109 125 200 -600 Descending Houston Center
06:38PM 29.6454 -95.2789 115° Southeast  Level Estimated